sensor_id;sensor_type;location;lat;lon;timestamp;pressure;altitude;pressure_sealevel;temperature;humidity
43691;BME280;29293;52.190;21.226;2023-01-29T00:02:17;101285.67;;;-1.92;100.00
43691;BME280;29293;52.190;21.226;2023-01-29T00:17:30;101274.61;;;-1.90;100.00
43691;BME280;29293;52.190;21.226;2023-01-29T00:32:41;101251.36;;;-1.94;100.00
43691;BME280;29293;52.190;21.226;2023-01-29T00:47:50;101244.27;;;-1.97;100.00
43691;BME280;29293;52.190;21.226;2023-01-29T01:02:59;101241.24;;;-2.05;100.00
43691;BME280;29293;52.190;21.226;2023-01-29T01:18:16;101212.20;;;-2.02;100.00
43691;BME280;29293;52.190;21.226;2023-01-29T01:33:28;101195.45;;;-2.01;100.00
43691;BME280;29293;52.190;21.226;2023-01-29T01:48:40;101184.58;;;-2.03;100.00
43691;BME280;29293;52.190;21.226;2023-01-29T02:03:56;101186.51;;;-2.10;100.00
43691;BME280;29293;52.190;21.226;2023-01-29T02:19:31;101187.34;;;-2.12;100.00
43691;BME280;29293;52.190;21.226;2023-01-29T02:34:51;101188.52;;;-2.18;100.00
43691;BME280;29293;52.190;21.226;2023-01-29T02:50:22;101178.43;;;-2.22;100.00
43691;BME280;29293;52.190;21.226;2023-01-29T03:05:39;101167.34;;;-2.23;100.00
43691;BME280;29293;52.190;21.226;2023-01-29T03:20:56;101165.25;;;-2.24;100.00
43691;BME280;29293;52.190;21.226;2023-01-29T03:36:12;101151.34;;;-2.27;100.00
43691;BME280;29293;52.190;21.226;2023-01-29T03:51:26;101138.36;;;-2.29;100.00
43691;BME280;29293;52.190;21.226;2023-01-29T04:06:38;101140.55;;;-2.31;100.00
43691;BME280;29293;52.190;21.226;2023-01-29T04:21:52;101127.27;;;-2.28;100.00
43691;BME280;29293;52.190;21.226;2023-01-29T04:37:14;101108.35;;;-2.29;100.00
43691;BME280;29293;52.190;21.226;2023-01-29T04:52:32;101101.69;;;-2.26;100.00
43691;BME280;29293;52.190;21.226;2023-01-29T05:07:48;101085.71;;;-2.29;100.00
43691;BME280;29293;52.190;21.226;2023-01-29T05:22:57;101089.63;;;-2.26;100.00
43691;BME280;29293;52.190;21.226;2023-01-29T05:38:07;101083.10;;;-2.23;100.00
43691;BME280;29293;52.190;21.226;2023-01-29T05:53:16;101062.40;;;-2.21;100.00
43691;BME280;29293;52.190;21.226;2023-01-29T06:08:27;101061.02;;;-2.18;100.00
43691;BME280;29293;52.190;21.226;2023-01-29T06:23:38;101065.73;;;-2.16;100.00
43691;BME280;29293;52.190;21.226;2023-01-29T06:38:47;101065.77;;;-2.10;100.00
43691;BME280;29293;52.190;21.226;2023-01-29T06:53:58;101062.79;;;-2.00;100.00
43691;BME280;29293;52.190;21.226;2023-01-29T07:09:10;101072.29;;;-1.92;100.00
43691;BME280;29293;52.190;21.226;2023-01-29T07:24:19;101050.31;;;-1.86;100.00
43691;BME280;29293;52.190;21.226;2023-01-29T07:39:28;101050.11;;;-1.72;100.00
43691;BME280;29293;52.190;21.226;2023-01-29T07:54:38;101068.99;;;-1.60;100.00
43691;BME280;29293;52.190;21.226;2023-01-29T08:09:49;101054.39;;;-1.46;100.00
43691;BME280;29293;52.190;21.226;2023-01-29T08:24:59;101042.88;;;-1.23;100.00
43691;BME280;29293;52.190;21.226;2023-01-29T08:40:11;101037.79;;;-1.15;100.00
43691;BME280;29293;52.190;21.226;2023-01-29T08:55:22;101029.34;;;-1.04;100.00
43691;BME280;29293;52.190;21.226;2023-01-29T09:10:33;101019.67;;;-0.96;100.00
43691;BME280;29293;52.190;21.226;2023-01-29T09:25:43;100993.19;;;-0.86;100.00
43691;BME280;29293;52.190;21.226;2023-01-29T09:41:01;100977.86;;;-0.55;100.00
43691;BME280;29293;52.190;21.226;2023-01-29T09:56:15;100967.42;;;-0.41;100.00
43691;BME280;29293;52.190;21.226;2023-01-29T10:11:36;100945.80;;;-0.25;100.00
43691;BME280;29293;52.190;21.226;2023-01-29T10:26:50;100927.88;;;0.29;100.00
43691;BME280;29293;52.190;21.226;2023-01-29T10:42:36;100918.26;;;0.27;100.00
43691;BME280;29293;52.190;21.226;2023-01-29T10:57:57;100913.57;;;0.16;100.00
43691;BME280;29293;52.190;21.226;2023-01-29T11:13:13;100903.33;;;0.12;100.00
43691;BME280;29293;52.190;21.226;2023-01-29T11:28:37;100884.05;;;-0.04;100.00
43691;BME280;29293;52.190;21.226;2023-01-29T11:43:47;100860.39;;;-0.24;100.00
43691;BME280;29293;52.190;21.226;2023-01-29T11:58:58;100818.02;;;-0.29;100.00
43691;BME280;29293;52.190;21.226;2023-01-29T12:14:27;100798.94;;;-0.28;100.00
43691;BME280;29293;52.190;21.226;2023-01-29T12:29:44;100775.88;;;-0.29;100.00
43691;BME280;29293;52.190;21.226;2023-01-29T12:44:59;100765.48;;;-0.42;100.00
43691;BME280;29293;52.190;21.226;2023-01-29T13:00:14;100743.02;;;-0.49;100.00
43691;BME280;29293;52.190;21.226;2023-01-29T13:15:32;100729.95;;;-0.56;100.00
43691;BME280;29293;52.190;21.226;2023-01-29T13:30:44;100756.13;;;-0.57;100.00
43691;BME280;29293;52.190;21.226;2023-01-29T13:45:55;100746.20;;;-0.57;100.00
43691;BME280;29293;52.190;21.226;2023-01-29T14:01:05;100718.05;;;-0.62;100.00
43691;BME280;29293;52.190;21.226;2023-01-29T14:16:43;100712.13;;;-0.67;100.00
43691;BME280;29293;52.190;21.226;2023-01-29T14:31:56;100739.20;;;-0.77;100.00
43691;BME280;29293;52.190;21.226;2023-01-29T14:47:19;100746.02;;;-0.83;100.00
43691;BME280;29293;52.190;21.226;2023-01-29T15:02:32;100707.06;;;-0.91;100.00
43691;BME280;29293;52.190;21.226;2023-01-29T15:17:53;100701.53;;;-0.97;100.00
43691;BME280;29293;52.190;21.226;2023-01-29T15:33:06;100701.40;;;-0.97;100.00
43691;BME280;29293;52.190;21.226;2023-01-29T15:48:19;100681.95;;;-1.01;100.00
43691;BME280;29293;52.190;21.226;2023-01-29T16:03:32;100668.23;;;-0.98;100.00
43691;BME280;29293;52.190;21.226;2023-01-29T16:18:45;100661.77;;;-0.97;100.00
43691;BME280;29293;52.190;21.226;2023-01-29T16:33:57;100662.59;;;-0.99;100.00
43691;BME280;29293;52.190;21.226;2023-01-29T16:49:44;100665.19;;;-1.01;100.00
43691;BME280;29293;52.190;21.226;2023-01-29T17:04:58;100680.48;;;-1.01;100.00
43691;BME280;29293;52.190;21.226;2023-01-29T17:20:14;100661.18;;;-0.99;100.00
43691;BME280;29293;52.190;21.226;2023-01-29T17:35:24;100640.28;;;-0.97;100.00
43691;BME280;29293;52.190;21.226;2023-01-29T17:50:35;100612.27;;;-0.98;100.00
43691;BME280;29293;52.190;21.226;2023-01-29T18:05:47;100584.20;;;-0.95;100.00
43691;BME280;29293;52.190;21.226;2023-01-29T18:20:57;100556.30;;;-0.95;100.00
43691;BME280;29293;52.190;21.226;2023-01-29T18:36:11;100525.92;;;-0.95;100.00
43691;BME280;29293;52.190;21.226;2023-01-29T18:51:21;100515.61;;;-0.95;100.00
43691;BME280;29293;52.190;21.226;2023-01-29T19:06:33;100518.79;;;-0.97;100.00
43691;BME280;29293;52.190;21.226;2023-01-29T19:21:42;100505.66;;;-0.95;100.00
43691;BME280;29293;52.190;21.226;2023-01-29T19:36:54;100496.11;;;-0.93;100.00
43691;BME280;29293;52.190;21.226;2023-01-29T19:52:07;100470.98;;;-0.94;100.00
43691;BME280;29293;52.190;21.226;2023-01-29T20:07:36;100458.42;;;-0.90;100.00
43691;BME280;29293;52.190;21.226;2023-01-29T20:22:46;100436.16;;;-0.89;100.00
43691;BME280;29293;52.190;21.226;2023-01-29T20:37:58;100423.88;;;-0.88;100.00
43691;BME280;29293;52.190;21.226;2023-01-29T20:53:11;100397.58;;;-0.88;100.00
43691;BME280;29293;52.190;21.226;2023-01-29T21:08:21;100375.11;;;-0.84;100.00
43691;BME280;29293;52.190;21.226;2023-01-29T21:23:31;100359.16;;;-0.83;100.00
43691;BME280;29293;52.190;21.226;2023-01-29T21:38:43;100351.84;;;-0.79;100.00
43691;BME280;29293;52.190;21.226;2023-01-29T21:53:54;100349.48;;;-0.78;100.00
43691;BME280;29293;52.190;21.226;2023-01-29T22:09:04;100328.60;;;-0.80;100.00
43691;BME280;29293;52.190;21.226;2023-01-29T22:24:14;100299.97;;;-0.82;100.00
43691;BME280;29293;52.190;21.226;2023-01-29T22:39:26;100259.30;;;-0.82;100.00
43691;BME280;29293;52.190;21.226;2023-01-29T22:54:36;100228.02;;;-0.82;100.00
43691;BME280;29293;52.190;21.226;2023-01-29T23:09:47;100192.02;;;-0.81;100.00
43691;BME280;29293;52.190;21.226;2023-01-29T23:24:57;100158.73;;;-0.77;100.00
43691;BME280;29293;52.190;21.226;2023-01-29T23:40:11;100135.21;;;-0.66;100.00
43691;BME280;29293;52.190;21.226;2023-01-29T23:55:22;100112.14;;;-0.59;100.00
